New Nada — 3ELP9 — position and weather

sailwx.info

Track history (hours):
 
Tides and Currents Weather Stations Pressure Air Temp Water Temp Dewpoint Dewpoint Depression Visibility Wind Speed Wind Dir Waves Ship Positions

New Nada

Last reported at 2016-Jun-28 22:33 UTC. Time now 2016-Jun-30 10:39 UTC.
Position N 18°37' W 066°13'.

Length 180 m; beam 32.2 m.

Type: Cargo ship. MMSI: 356005000.

Date/timePositionNaut miles runAvg speedWind from/ knotsBaromVisibWave heightAir tempDewpointWater temp
2016-Jun-28 22:33N 18°37' W 066°13'1211.5
2016-Jun-28 21:33N 18°27' W 066°06'1 1.3
2016-Jun-28 20:31N 18°26' W 066°05'0 0.0
2016-Jun-28 19:28N 18°26' W 066°05'0 0.0
2016-Jun-28 18:28N 18°26' W 066°05'0 0.0
2016-Jun-28 17:31N 18°26' W 066°05'0 0.0
2016-Jun-28 16:33N 18°26' W 066°05'5 4.7
2016-Jun-28 15:33N 18°31' W 066°07'8 7.7
2016-Jun-28 14:33N 18°38' W 066°07'  
2016-Jun-25 07:05N 38°49' W 072°09'916.1
2016-Jun-25 06:33N 38°55' W 072°16'3516.6
2016-Jun-25 04:27N 39°22' W 072°44'1917.5
2016-Jun-25 03:23N 39°37' W 072°58'1916.8
2016-Jun-25 02:13N 39°53' W 073°14'1217.2
2016-Jun-25 01:30N 40°02' W 073°24'3414.4
2016-Jun-24 23:11N 40°28' W 073°52'711.8
2016-Jun-24 22:33N 40°31' W 074°01'9 8.7
2016-Jun-24 21:34N 40°39' W 074°07'3 2.8
2016-Jun-24 20:33N 40°41' W 074°08'0 0.0
2016-Jun-24 19:33N 40°41' W 074°08'0 0.0
2016-Jun-24 18:30N 40°41' W 074°08'0 0.0
2016-Jun-24 17:33N 40°41' W 074°08'0 0.0
2016-Jun-24 16:33N 40°41' W 074°08'0 0.0
2016-Jun-24 15:33N 40°41' W 074°08'0 0.0
2016-Jun-24 14:33N 40°41' W 074°08'0 0.0
2016-Jun-24 13:33N 40°41' W 074°08'0 0.0
2016-Jun-24 12:33N 40°41' W 074°08'0 0.0
2016-Jun-24 11:33N 40°41' W 074°08'0 0.0
2016-Jun-24 10:33N 40°41' W 074°08'0 0.0
2016-Jun-24 09:33N 40°41' W 074°08'0 0.0
2016-Jun-24 08:33N 40°41' W 074°08'0 0.0
2016-Jun-24 07:33N 40°41' W 074°08'0 0.0
2016-Jun-24 04:33N 40°41' W 074°08'0 0.0
2016-Jun-24 03:33N 40°41' W 074°08'0 0.0
2016-Jun-24 02:33N 40°41' W 074°08'0 0.0
2016-Jun-24 01:33N 40°41' W 074°08'0 0.0
2016-Jun-24 00:30N 40°41' W 074°08'0 0.0
2016-Jun-23 23:33N 40°41' W 074°08'1 0.8
2016-Jun-23 22:33N 40°41' W 074°08'5 5.3
2016-Jun-23 21:33N 40°37' W 074°03'10 9.9
2016-Jun-23 20:33N 40°29' W 073°55'9 9.1
2016-Jun-23 19:32N 40°22' W 073°47'5 5.3
2016-Jun-23 18:33N 40°17' W 073°45'12 9.9
2016-Jun-23 17:21N 40°05' W 073°44'910.9
2016-Jun-23 16:33N 39°57' W 073°43'1111.4
2016-Jun-23 15:33N 39°45' W 073°41'3113.9
2016-Jun-23 13:19N 39°14' W 073°43'2910.3
2016-Jun-23 10:28N 38°47' W 073°56'3216.2
2016-Jun-23 08:28N 38°16' W 074°06'1617.6
2016-Jun-23 07:33N 37°60' W 074°12'  
Track history (hours):
 
Tides and Currents Weather Stations Pressure Air Temp Water Temp Dewpoint Dewpoint Depression Visibility Wind Speed Wind Dir Waves Ship Positions

New Nada

Last reported at 2016-Jun-28 22:33 UTC. Time now 2016-Jun-30 10:39 UTC.
Position N 18°37' W 066°13'.

Length 180 m; beam 32.2 m.

Type: Cargo ship. MMSI: 356005000.

Date/timePositionNaut miles runAvg speedWind from/ knotsBaromVisibWave heightAir tempDewpointWater temp
2016-Jun-28 22:33N 18°37' W 066°13'1211.5
2016-Jun-28 21:33N 18°27' W 066°06'1 1.3
2016-Jun-28 20:31N 18°26' W 066°05'0 0.0
2016-Jun-28 19:28N 18°26' W 066°05'0 0.0
2016-Jun-28 18:28N 18°26' W 066°05'0 0.0
2016-Jun-28 17:31N 18°26' W 066°05'0 0.0
2016-Jun-28 16:33N 18°26' W 066°05'5 4.7
2016-Jun-28 15:33N 18°31' W 066°07'8 7.7
2016-Jun-28 14:33N 18°38' W 066°07'  
2016-Jun-25 07:05N 38°49' W 072°09'916.1
2016-Jun-25 06:33N 38°55' W 072°16'3516.6
2016-Jun-25 04:27N 39°22' W 072°44'1917.5
2016-Jun-25 03:23N 39°37' W 072°58'1916.8
2016-Jun-25 02:13N 39°53' W 073°14'1217.2
2016-Jun-25 01:30N 40°02' W 073°24'3414.4
2016-Jun-24 23:11N 40°28' W 073°52'711.8
2016-Jun-24 22:33N 40°31' W 074°01'9 8.7
2016-Jun-24 21:34N 40°39' W 074°07'3 2.8
2016-Jun-24 20:33N 40°41' W 074°08'0 0.0
2016-Jun-24 19:33N 40°41' W 074°08'0 0.0
2016-Jun-24 18:30N 40°41' W 074°08'0 0.0
2016-Jun-24 17:33N 40°41' W 074°08'0 0.0
2016-Jun-24 16:33N 40°41' W 074°08'0 0.0
2016-Jun-24 15:33N 40°41' W 074°08'0 0.0
2016-Jun-24 14:33N 40°41' W 074°08'0 0.0
2016-Jun-24 13:33N 40°41' W 074°08'0 0.0
2016-Jun-24 12:33N 40°41' W 074°08'0 0.0
2016-Jun-24 11:33N 40°41' W 074°08'0 0.0
2016-Jun-24 10:33N 40°41' W 074°08'0 0.0
2016-Jun-24 09:33N 40°41' W 074°08'0 0.0
2016-Jun-24 08:33N 40°41' W 074°08'0 0.0
2016-Jun-24 07:33N 40°41' W 074°08'0 0.0
2016-Jun-24 04:33N 40°41' W 074°08'0 0.0
2016-Jun-24 03:33N 40°41' W 074°08'0 0.0
2016-Jun-24 02:33N 40°41' W 074°08'0 0.0
2016-Jun-24 01:33N 40°41' W 074°08'0 0.0
2016-Jun-24 00:30N 40°41' W 074°08'0 0.0
2016-Jun-23 23:33N 40°41' W 074°08'1 0.8
2016-Jun-23 22:33N 40°41' W 074°08'5 5.3
2016-Jun-23 21:33N 40°37' W 074°03'10 9.9
2016-Jun-23 20:33N 40°29' W 073°55'9 9.1
2016-Jun-23 19:32N 40°22' W 073°47'5 5.3
2016-Jun-23 18:33N 40°17' W 073°45'12 9.9
2016-Jun-23 17:21N 40°05' W 073°44'910.9
2016-Jun-23 16:33N 39°57' W 073°43'1111.4
2016-Jun-23 15:33N 39°45' W 073°41'3113.9
2016-Jun-23 13:19N 39°14' W 073°43'2910.3
2016-Jun-23 10:28N 38°47' W 073°56'3216.2
2016-Jun-23 08:28N 38°16' W 074°06'1617.6
2016-Jun-23 07:33N 37°60' W 074°12'  

Dump ship's entire track history